createdAt,value
2018-09-18T00:00:08.221Z,5.70
2018-09-18T00:02:36.159Z,5.57
2018-09-18T00:05:04.115Z,6.07
2018-09-18T00:07:32.099Z,5.60
2018-09-18T00:10:00.028Z,6.57
2018-09-18T00:12:28.037Z,5.80
2018-09-18T00:14:55.970Z,5.67
2018-09-18T00:17:23.901Z,5.40
2018-09-18T00:19:51.841Z,5.43
2018-09-18T00:22:19.787Z,6.17
2018-09-18T00:24:47.724Z,5.90
2018-09-18T00:27:15.687Z,6.10
2018-09-18T00:29:43.619Z,5.27
2018-09-18T00:32:11.546Z,6.07
2018-09-18T00:34:39.482Z,5.90
2018-09-18T00:37:07.426Z,5.17
2018-09-18T00:39:35.363Z,5.93
2018-09-18T00:42:03.582Z,6.27
2018-09-18T00:44:31.538Z,5.57
2018-09-18T00:46:59.468Z,5.60
2018-09-18T00:49:28.703Z,6.07
2018-09-18T00:51:56.650Z,5.80
2018-09-18T00:54:24.590Z,5.73
2018-09-18T00:56:52.818Z,5.63
2018-09-18T00:59:20.718Z,5.27
2018-09-18T01:01:49.508Z,5.43
2018-09-18T01:04:17.452Z,5.90
2018-09-18T01:06:45.368Z,5.60
2018-09-18T01:09:13.554Z,5.47
2018-09-18T01:11:41.512Z,5.37
2018-09-18T01:14:09.459Z,5.83
2018-09-18T01:16:37.556Z,5.53
2018-09-18T01:19:05.495Z,6.00
2018-09-18T01:21:33.449Z,5.47
2018-09-18T01:24:01.642Z,4.90
2018-09-18T01:26:29.554Z,6.10
2018-09-18T01:28:57.518Z,5.53
2018-09-18T01:31:25.488Z,5.07
2018-09-18T01:33:53.432Z,4.73
2018-09-18T01:36:21.405Z,5.67
2018-09-18T01:38:49.334Z,5.20
2018-09-18T01:41:17.307Z,5.17
2018-09-18T01:43:48.860Z,4.97
2018-09-18T01:46:16.765Z,5.60
2018-09-18T01:48:44.700Z,5.40
2018-09-18T01:51:12.644Z,4.60
2018-09-18T01:53:40.583Z,5.03
2018-09-18T01:56:08.531Z,4.67
2018-09-18T01:58:40.248Z,5.20
2018-09-18T02:01:08.484Z,5.03
2018-09-18T02:03:36.455Z,5.10
2018-09-18T02:06:04.378Z,5.33
2018-09-18T02:08:32.330Z,5.33
2018-09-18T02:11:00.267Z,5.10
2018-09-18T02:13:28.260Z,5.07
2018-09-18T02:15:56.197Z,5.30
2018-09-18T02:18:24.132Z,5.40
2018-09-18T02:20:52.069Z,4.93
2018-09-18T02:23:20.011Z,5.63
2018-09-18T02:25:47.975Z,5.40
2018-09-18T02:28:15.945Z,5.73
2018-09-18T02:30:43.872Z,5.70
2018-09-18T02:33:11.812Z,5.60
2018-09-18T02:35:39.752Z,5.83
2018-09-18T02:38:07.716Z,5.73
2018-09-18T02:40:35.630Z,5.10
2018-09-18T02:43:03.554Z,5.47
2018-09-18T02:45:31.507Z,5.70
2018-09-18T02:47:59.427Z,5.40
2018-09-18T02:50:27.366Z,5.30
2018-09-18T02:52:55.307Z,6.30
2018-09-18T02:55:23.248Z,6.57
2018-09-18T02:57:51.188Z,5.80
2018-09-18T03:00:19.128Z,5.57
2018-09-18T03:02:47.062Z,6.17
2018-09-18T03:05:14.997Z,5.77
2018-09-18T03:07:43.219Z,5.77
2018-09-18T03:10:11.156Z,6.67
2018-09-18T03:12:39.089Z,6.10
2018-09-18T03:15:10.116Z,6.03
2018-09-18T03:17:38.021Z,6.63
2018-09-18T03:20:06.095Z,6.10
2018-09-18T03:22:34.061Z,6.07
2018-09-18T03:25:01.983Z,6.43
2018-09-18T03:27:29.938Z,6.63
2018-09-18T03:29:57.863Z,6.10
2018-09-18T03:32:25.805Z,6.87
2018-09-18T03:34:53.730Z,7.40
2018-09-18T03:37:21.738Z,6.83
2018-09-18T03:39:49.671Z,6.00
2018-09-18T03:42:17.628Z,6.67
2018-09-18T03:44:45.575Z,6.63
2018-09-18T03:47:13.604Z,6.70
2018-09-18T03:49:41.529Z,6.83
2018-09-18T03:52:09.517Z,7.57
2018-09-18T03:54:37.631Z,6.37
2018-09-18T03:57:05.560Z,7.03
2018-09-18T03:59:33.487Z,6.00
2018-09-18T04:02:01.438Z,7.40
2018-09-18T04:04:29.358Z,6.80
2018-09-18T04:06:57.309Z,7.10
2018-09-18T04:09:25.241Z,7.27
2018-09-18T04:11:53.170Z,7.67
2018-09-18T04:14:21.111Z,7.30
2018-09-18T04:16:49.179Z,6.67
2018-09-18T04:19:17.099Z,8.00
2018-09-18T04:21:45.041Z,7.40
2018-09-18T04:24:12.957Z,7.20
2018-09-18T04:26:41.564Z,7.27
2018-09-18T04:29:10.112Z,7.37
2018-09-18T04:31:39.547Z,8.07
2018-09-18T04:34:07.536Z,8.00
2018-09-18T04:36:35.559Z,7.60
2018-09-18T04:39:04.510Z,8.10
2018-09-18T04:41:32.439Z,8.50
2018-09-18T04:44:00.440Z,7.67
2018-09-18T04:46:28.371Z,8.33
2018-09-18T04:48:56.315Z,8.13
2018-09-18T04:51:24.251Z,7.37
2018-09-18T04:53:52.209Z,7.77
2018-09-18T04:56:20.140Z,7.83
2018-09-18T04:58:48.071Z,8.47
2018-09-18T05:01:16.015Z,8.40
2018-09-18T05:03:43.967Z,8.03
2018-09-18T05:06:12.167Z,8.10
2018-09-18T05:08:40.094Z,7.43
2018-09-18T05:11:08.023Z,8.13
2018-09-18T05:13:35.996Z,8.20
2018-09-18T05:16:03.919Z,8.33
2018-09-18T05:18:31.847Z,7.67
2018-09-18T05:20:59.839Z,8.17
2018-09-18T05:23:27.763Z,7.77
2018-09-18T05:25:55.689Z,7.47
2018-09-18T05:28:23.775Z,8.30
2018-09-18T05:30:51.716Z,7.30
2018-09-18T05:33:19.659Z,8.33
2018-09-18T05:35:47.662Z,7.87
2018-09-18T05:38:15.701Z,7.63
2018-09-18T05:40:43.666Z,8.57
2018-09-18T05:43:11.791Z,8.23
2018-09-18T05:45:46.840Z,8.33
2018-09-18T05:48:14.840Z,8.20
2018-09-18T05:50:43.078Z,8.00
2018-09-18T05:53:11.607Z,7.90
2018-09-18T05:55:39.585Z,8.43
2018-09-18T05:58:07.673Z,7.73
2018-09-18T06:00:35.608Z,8.40
2018-09-18T06:03:03.968Z,9.03
2018-09-18T06:05:32.064Z,9.33
2018-09-18T06:08:00.021Z,9.13
2018-09-18T06:10:27.969Z,8.90
2018-09-18T06:12:55.943Z,9.33
2018-09-18T06:15:23.901Z,8.77
2018-09-18T06:20:25.047Z,8.03
2018-09-18T06:22:53.047Z,8.43
2018-09-18T06:25:21.763Z,10.10
2018-09-18T06:27:50.522Z,11.37
2018-09-18T06:30:18.508Z,9.37
2018-09-18T06:32:46.547Z,8.40
2018-09-18T06:35:14.833Z,8.57
2018-09-18T06:37:42.768Z,8.90
2018-09-18T06:40:10.687Z,8.50
2018-09-18T06:42:38.670Z,9.07
2018-09-18T06:45:06.781Z,8.73
2018-09-18T06:47:34.703Z,9.03
2018-09-18T06:50:02.666Z,9.77
2018-09-18T06:52:30.643Z,9.33
2018-09-18T06:54:58.662Z,8.70
2018-09-18T06:57:26.614Z,9.57
2018-09-18T06:59:54.615Z,8.67
2018-09-18T07:02:22.523Z,9.40
2018-09-18T07:04:50.459Z,8.63
2018-09-18T07:07:18.424Z,8.67
2018-09-18T07:09:46.373Z,10.43
2018-09-18T07:12:14.320Z,9.50
2018-09-18T07:14:42.270Z,9.23
2018-09-18T07:17:10.210Z,9.63
2018-09-18T07:19:38.625Z,9.30
2018-09-18T07:22:06.587Z,9.50
2018-09-18T07:24:34.604Z,10.03
2018-09-18T07:27:02.546Z,9.17
2018-09-18T07:29:30.714Z,9.63
2018-09-18T07:31:58.593Z,9.23
2018-09-18T07:34:26.558Z,10.40
2018-09-18T07:36:54.516Z,10.10
2018-09-18T07:39:22.447Z,9.37
2018-09-18T07:41:50.375Z,9.70
2018-09-18T07:44:18.561Z,9.70
2018-09-18T07:46:46.530Z,9.43
2018-09-18T07:49:14.460Z,9.20
2018-09-18T07:51:42.410Z,9.10
2018-09-18T07:54:10.353Z,8.93
2018-09-18T07:56:38.278Z,9.03
2018-09-18T07:59:06.246Z,8.73
2018-09-18T08:01:34.218Z,9.43
2018-09-18T08:04:02.144Z,9.17
2018-09-18T08:06:30.096Z,9.07
2018-09-18T08:08:58.042Z,10.03
2018-09-18T08:11:26.001Z,10.30
2018-09-18T08:13:53.926Z,9.93
2018-09-18T08:16:21.887Z,9.40
2018-09-18T08:18:49.879Z,9.87
2018-09-18T08:21:17.789Z,9.80
2018-09-18T08:23:45.746Z,9.00
2018-09-18T08:26:13.693Z,8.67
2018-09-18T08:28:41.640Z,8.93
2018-09-18T08:31:09.576Z,8.93
2018-09-18T08:33:37.768Z,8.97
2018-09-18T08:36:05.785Z,8.80
2018-09-18T08:38:33.724Z,9.23
2018-09-18T08:41:01.689Z,8.30
2018-09-18T08:43:29.637Z,7.87
2018-09-18T08:45:57.559Z,8.00
2018-09-18T08:48:30.366Z,9.20
2018-09-18T08:50:59.517Z,8.63
2018-09-18T08:53:27.645Z,7.80
2018-09-18T08:55:55.615Z,8.53
2018-09-18T08:58:23.794Z,8.27
2018-09-18T09:00:51.830Z,10.63
2018-09-18T09:03:19.773Z,9.70
2018-09-18T09:05:47.719Z,8.57
2018-09-18T09:08:15.772Z,8.10
2018-09-18T09:10:43.697Z,8.07
2018-09-18T09:13:11.765Z,8.10
2018-09-18T09:15:39.807Z,8.50
2018-09-18T09:18:07.758Z,10.27
2018-09-18T09:20:35.728Z,8.63
2018-09-18T09:23:03.686Z,8.13
2018-09-18T09:25:31.805Z,7.83
2018-09-18T09:27:59.857Z,7.27
2018-09-18T09:30:27.751Z,8.13
2018-09-18T09:32:55.844Z,9.07
2018-09-18T09:35:23.790Z,7.93
2018-09-18T09:37:51.731Z,8.03
2018-09-18T09:40:19.667Z,8.03
2018-09-18T09:42:47.586Z,8.87
2018-09-18T09:45:15.724Z,7.73
2018-09-18T09:47:43.657Z,8.17
2018-09-18T09:50:11.603Z,7.57
2018-09-18T09:52:39.553Z,7.53
2018-09-18T09:55:07.474Z,8.63
2018-09-18T09:57:35.462Z,7.70
2018-09-18T10:00:03.499Z,14.03
2018-09-18T10:02:35.735Z,8.07
2018-09-18T10:05:03.953Z,11.27
2018-09-18T10:07:32.159Z,8.80
2018-09-18T10:10:00.096Z,7.50
2018-09-18T10:12:28.022Z,9.37
2018-09-18T10:14:55.966Z,8.63
2018-09-18T10:17:23.897Z,8.87
2018-09-18T10:19:51.839Z,9.90
2018-09-18T10:22:19.804Z,9.23
2018-09-18T10:24:47.767Z,8.43
2018-09-18T10:27:15.993Z,9.37
2018-09-18T10:29:43.940Z,10.90
2018-09-18T10:32:11.889Z,9.80
2018-09-18T10:34:39.831Z,8.00
2018-09-18T10:37:07.770Z,10.60
2018-09-18T10:39:35.708Z,8.17
2018-09-18T10:42:03.915Z,8.30
2018-09-18T10:44:31.721Z,7.87
2018-09-18T10:46:59.679Z,7.60
2018-09-18T10:49:28.124Z,8.17
2018-09-18T10:51:56.135Z,7.53
2018-09-18T10:54:24.065Z,7.73
2018-09-18T10:56:52.023Z,7.70
2018-09-18T10:59:19.950Z,7.87
2018-09-18T11:01:47.869Z,8.63
2018-09-18T11:04:15.845Z,8.07
2018-09-18T11:06:43.748Z,8.80
2018-09-18T11:09:11.899Z,6.00
2018-09-18T11:11:40.772Z,6.70
2018-09-18T11:14:09.030Z,6.40
2018-09-18T11:16:37.051Z,7.27
2018-09-18T11:19:05.166Z,6.53
2018-09-18T11:21:33.182Z,6.20
2018-09-18T11:24:01.015Z,5.43
2018-09-18T11:26:28.958Z,5.60
2018-09-18T11:28:56.882Z,5.60
2018-09-18T11:31:24.905Z,6.03
2018-09-18T11:33:52.853Z,5.30
2018-09-18T11:36:20.738Z,6.17
2018-09-18T11:38:48.719Z,5.60
2018-09-18T11:41:16.736Z,5.80
2018-09-18T11:43:48.169Z,4.80
2018-09-18T11:46:16.103Z,5.40
2018-09-18T11:48:44.076Z,4.83
2018-09-18T11:51:12.008Z,5.60
2018-09-18T11:53:39.963Z,5.23
2018-09-18T11:56:07.984Z,5.00
2018-09-18T11:58:35.941Z,5.10
2018-09-18T12:01:03.896Z,6.63
2018-09-18T12:03:31.830Z,5.30
2018-09-18T12:05:59.779Z,5.27
2018-09-18T12:08:27.727Z,4.83
2018-09-18T12:10:55.685Z,5.60
2018-09-18T12:13:23.675Z,5.27
2018-09-18T12:15:51.627Z,4.80
2018-09-18T12:18:19.582Z,5.63
2018-09-18T12:20:47.512Z,5.13
2018-09-18T12:23:15.487Z,5.23
2018-09-18T12:25:43.450Z,5.73
2018-09-18T12:28:11.500Z,6.00
2018-09-18T12:30:39.419Z,5.90
2018-09-18T12:33:07.473Z,6.70
2018-09-18T12:35:36.204Z,6.47
2018-09-18T12:38:04.210Z,6.13
2018-09-18T12:40:32.154Z,5.93
2018-09-18T12:43:00.078Z,6.33
2018-09-18T12:45:28.023Z,6.17
2018-09-18T12:47:55.965Z,5.63
2018-09-18T12:50:24.156Z,5.13
2018-09-18T12:52:51.855Z,4.90
2018-09-18T12:55:19.810Z,5.33
2018-09-18T12:57:47.767Z,5.33
2018-09-18T13:00:15.777Z,4.30
2018-09-18T13:02:43.628Z,5.03
2018-09-18T13:05:11.846Z,4.87
2018-09-18T13:07:39.782Z,5.65
2018-09-18T13:10:07.975Z,4.50
2018-09-18T13:12:35.825Z,5.73
2018-09-18T13:15:03.857Z,6.57
2018-09-18T13:17:31.874Z,8.17
2018-09-18T13:19:59.818Z,6.53
2018-09-18T13:22:27.712Z,5.93
2018-09-18T13:24:55.650Z,5.40
2018-09-18T13:27:23.591Z,5.78
2018-09-18T13:29:51.551Z,6.70
2018-09-18T13:32:19.548Z,15.03
2018-09-18T13:34:47.468Z,7.70
2018-09-18T13:37:15.430Z,6.03
2018-09-18T13:39:43.385Z,6.35
2018-09-18T13:42:11.348Z,10.33
2018-09-18T13:44:39.310Z,7.90
2018-09-18T13:47:07.394Z,9.43
2018-09-18T13:49:35.358Z,11.63
2018-09-18T13:52:03.387Z,6.27
2018-09-18T13:54:31.247Z,7.62
2018-09-18T13:56:59.196Z,6.72
2018-09-18T13:59:27.156Z,5.25
2018-09-18T14:01:55.096Z,5.28
2018-09-18T14:04:23.118Z,5.58
2018-09-18T14:06:50.997Z,5.37
2018-09-18T14:09:18.958Z,6.55
2018-09-18T14:11:57.087Z,6.45
2018-09-18T14:14:25.083Z,5.60
2018-09-18T14:16:53.001Z,5.67
2018-09-18T14:19:20.941Z,5.22
2018-09-18T14:21:48.895Z,4.87
2018-09-18T14:24:16.848Z,5.63
2018-09-18T14:26:44.827Z,7.20
2018-09-18T14:29:12.767Z,5.75
2018-09-18T14:31:40.715Z,4.90
2018-09-18T14:34:08.646Z,10.13
2018-09-18T14:36:36.621Z,6.50
2018-09-18T14:39:07.271Z,6.75
2018-09-18T14:41:35.353Z,5.85
2018-09-18T14:44:03.309Z,5.08
2018-09-18T14:46:31.257Z,6.12
2018-09-18T14:48:59.204Z,7.58
2018-09-18T14:51:27.292Z,7.22
2018-09-18T14:53:55.283Z,8.55
2018-09-18T14:56:23.214Z,10.32
2018-09-18T14:58:51.158Z,13.88
2018-09-18T15:01:25.775Z,20.65
2018-09-18T15:03:53.727Z,6.37
2018-09-18T15:06:28.271Z,4.72
2018-09-18T15:08:56.224Z,5.95
2018-09-18T15:11:24.174Z,5.53
2018-09-18T15:13:52.099Z,4.95
2018-09-18T15:16:20.010Z,5.12
2018-09-18T15:18:48.239Z,5.08
2018-09-18T15:21:16.176Z,4.85
2018-09-18T15:23:44.110Z,4.80
2018-09-18T15:26:12.073Z,5.35
2018-09-18T15:28:40.006Z,4.80
2018-09-18T15:31:07.960Z,5.17
2018-09-18T15:33:35.965Z,5.03
2018-09-18T15:36:03.836Z,4.47
2018-09-18T15:38:31.815Z,4.60
2018-09-18T15:40:59.780Z,6.12
2018-09-18T15:43:27.769Z,4.65
2018-09-18T15:45:55.768Z,5.47
2018-09-18T15:48:23.717Z,5.50
2018-09-18T15:50:51.640Z,5.62
2018-09-18T15:53:19.597Z,5.08
2018-09-18T15:55:47.535Z,5.17
2018-09-18T15:58:15.492Z,5.17
2018-09-18T16:00:43.699Z,4.83
2018-09-18T16:03:11.599Z,3.93
2018-09-18T16:05:39.950Z,4.50
2018-09-18T16:08:07.877Z,4.25
2018-09-18T16:10:35.835Z,4.60
2018-09-18T16:13:03.787Z,4.60
2018-09-18T16:17:59.713Z,4.67
2018-09-18T16:20:27.684Z,4.58
2018-09-18T16:22:55.643Z,4.62
2018-09-18T16:25:23.573Z,4.00
2018-09-18T16:27:51.514Z,4.15
2018-09-18T16:30:19.474Z,4.33
2018-09-18T16:32:47.415Z,4.40
2018-09-18T16:35:15.361Z,4.40
2018-09-18T16:37:43.308Z,4.75
2018-09-18T16:40:11.323Z,4.60
2018-09-18T16:42:39.553Z,3.80
2018-09-18T16:45:07.414Z,5.03
2018-09-18T16:47:35.361Z,4.45
2018-09-18T16:50:03.347Z,4.47
2018-09-18T16:52:31.482Z,4.70
2018-09-18T16:54:59.560Z,4.03
2018-09-18T16:57:27.490Z,5.30
2018-09-18T16:59:55.428Z,5.30
2018-09-18T17:02:23.508Z,7.58
2018-09-18T17:04:51.332Z,8.47
2018-09-18T17:07:22.442Z,6.30
2018-09-18T17:09:50.398Z,6.20
2018-09-18T17:12:18.611Z,7.13
2018-09-18T17:14:46.547Z,5.85
2018-09-18T17:17:14.531Z,8.17
2018-09-18T17:19:42.555Z,7.10
2018-09-18T17:22:10.410Z,7.67
2018-09-18T17:24:38.419Z,6.73
2018-09-18T17:27:06.303Z,7.47
2018-09-18T17:29:40.600Z,6.73
2018-09-18T17:32:08.639Z,8.68
2018-09-18T17:34:36.556Z,8.10
2018-09-18T17:37:05.085Z,8.40
2018-09-18T17:39:33.034Z,7.70
2018-09-18T17:42:00.993Z,7.90
2018-09-18T17:44:31.883Z,8.47
2018-09-18T17:46:59.834Z,8.73
2018-09-18T17:49:27.777Z,8.67
2018-09-18T17:51:58.991Z,7.40
2018-09-18T17:54:26.985Z,8.97
2018-09-18T17:56:55.154Z,8.37
2018-09-18T17:59:26.344Z,8.27
2018-09-18T18:01:54.234Z,8.90
2018-09-18T18:04:22.211Z,11.60
2018-09-18T18:06:50.156Z,16.40
2018-09-18T18:09:18.080Z,11.03
2018-09-18T18:11:46.060Z,9.73
2018-09-18T18:14:14.005Z,11.00
2018-09-18T18:16:41.947Z,9.93
2018-09-18T18:19:09.892Z,9.97
2018-09-18T18:21:37.819Z,13.57
2018-09-18T18:24:05.896Z,11.87
2018-09-18T18:26:34.001Z,11.70
2018-09-18T18:29:01.794Z,11.47
2018-09-18T18:31:29.735Z,10.03
2018-09-18T18:33:57.684Z,10.00
2018-09-18T18:36:25.615Z,8.97
2018-09-18T18:38:53.572Z,9.03
2018-09-18T18:41:21.488Z,8.33
2018-09-18T18:43:49.453Z,8.43
2018-09-18T18:46:17.372Z,8.80
2018-09-18T18:48:45.294Z,7.67
2018-09-18T18:51:13.255Z,9.10
2018-09-18T18:53:41.195Z,9.13
2018-09-18T18:56:09.185Z,8.97
2018-09-18T18:58:37.311Z,9.00
2018-09-18T19:01:05.311Z,9.07
2018-09-18T19:03:33.247Z,9.17
2018-09-18T19:06:01.208Z,8.83
2018-09-18T19:08:29.162Z,7.93
2018-09-18T19:11:00.827Z,10.47
2018-09-18T19:13:28.753Z,9.30
2018-09-18T19:16:00.517Z,10.37
2018-09-18T19:18:28.498Z,10.67
2018-09-18T19:20:56.443Z,10.13
2018-09-18T19:23:24.473Z,9.37
2018-09-18T19:25:52.472Z,9.73
2018-09-18T19:28:20.349Z,9.03
2018-09-18T19:30:51.099Z,8.53
2018-09-18T19:33:19.250Z,9.03
2018-09-18T19:35:46.976Z,9.50
2018-09-18T19:38:14.918Z,9.67
2018-09-18T19:40:42.880Z,9.30
2018-09-18T19:43:10.892Z,8.87
2018-09-18T19:45:38.751Z,8.87
2018-09-18T19:48:06.826Z,9.53
2018-09-18T19:50:34.814Z,8.37
2018-09-18T19:53:02.696Z,8.43
2018-09-18T19:55:32.410Z,8.70
2018-09-18T19:58:00.337Z,9.23
2018-09-18T20:00:28.260Z,9.70
2018-09-18T20:02:56.198Z,9.50
2018-09-18T20:05:24.124Z,9.70
2018-09-18T20:07:52.053Z,10.17
2018-09-18T20:10:20.015Z,9.10
2018-09-18T20:12:48.013Z,9.63
2018-09-18T20:15:15.911Z,9.77
2018-09-18T20:17:44.133Z,10.13
2018-09-18T20:20:12.069Z,9.90
2018-09-18T20:22:40.043Z,9.13
2018-09-18T20:25:07.956Z,9.30
2018-09-18T20:27:35.901Z,8.83
2018-09-18T20:30:03.827Z,9.33
2018-09-18T20:32:31.758Z,9.37
2018-09-18T20:34:59.693Z,9.53
2018-09-18T20:37:27.667Z,9.17
2018-09-18T20:39:55.607Z,9.77
2018-09-18T20:42:23.551Z,9.20
2018-09-18T20:44:51.508Z,8.50
2018-09-18T20:47:19.429Z,9.63
2018-09-18T20:49:47.397Z,12.73
2018-09-18T20:52:15.362Z,11.03
2018-09-18T20:54:43.301Z,10.87
2018-09-18T20:57:11.286Z,9.43
2018-09-18T20:59:39.246Z,8.90
2018-09-18T21:02:07.221Z,8.63
2018-09-18T21:04:35.153Z,9.27
2018-09-18T21:07:03.092Z,8.03
2018-09-18T21:09:31.044Z,9.70
2018-09-18T21:11:58.981Z,9.03
2018-09-18T21:14:26.915Z,8.67
2018-09-18T21:16:54.962Z,10.30
2018-09-18T21:19:22.909Z,9.07
2018-09-18T21:21:50.898Z,8.70
2018-09-18T21:24:18.825Z,9.13
2018-09-18T21:26:46.825Z,7.87
2018-09-18T21:29:14.758Z,7.60
2018-09-18T21:31:42.982Z,7.40
2018-09-18T21:34:10.901Z,8.63
2018-09-18T21:36:38.827Z,8.37
2018-09-18T21:39:07.976Z,7.10
2018-09-18T21:41:35.906Z,8.50
2018-09-18T21:44:03.885Z,8.17
2018-09-18T21:46:31.814Z,8.17
2018-09-18T21:48:59.758Z,8.50
2018-09-18T21:51:27.718Z,7.77
2018-09-18T21:53:55.631Z,8.63
2018-09-18T21:56:23.551Z,8.53
2018-09-18T21:58:51.930Z,9.87
2018-09-18T22:01:19.934Z,8.50
2018-09-18T22:03:47.813Z,8.80
2018-09-18T22:06:16.011Z,8.20
2018-09-18T22:08:43.950Z,8.43
2018-09-18T22:11:11.877Z,8.00
2018-09-18T22:13:39.818Z,7.63
2018-09-18T22:16:07.738Z,7.60
2018-09-18T22:18:39.467Z,7.27
2018-09-18T22:21:07.390Z,7.47
2018-09-18T22:23:35.351Z,10.17
2018-09-18T22:26:03.272Z,8.13
2018-09-18T22:28:31.203Z,7.57
2018-09-18T22:30:59.656Z,10.00
2018-09-18T22:33:27.580Z,8.33
2018-09-18T22:35:55.508Z,10.47
2018-09-18T22:38:23.458Z,7.57
2018-09-18T22:40:51.385Z,7.60
2018-09-18T22:43:19.330Z,7.70
2018-09-18T22:45:47.369Z,7.70
2018-09-18T22:48:15.300Z,7.27
2018-09-18T22:50:43.244Z,7.33
2018-09-18T22:53:11.214Z,7.03
2018-09-18T22:55:39.145Z,8.50
2018-09-18T22:58:07.104Z,7.87
2018-09-18T23:00:35.035Z,8.17
2018-09-18T23:03:02.954Z,7.50
2018-09-18T23:05:30.917Z,7.10
2018-09-18T23:07:58.866Z,7.70
2018-09-18T23:10:26.793Z,7.20
2018-09-18T23:12:54.711Z,7.00
2018-09-18T23:15:22.667Z,7.53
2018-09-18T23:17:50.588Z,7.93
2018-09-18T23:20:18.523Z,7.53
2018-09-18T23:22:46.466Z,7.77
2018-09-18T23:25:14.683Z,7.40
2018-09-18T23:27:42.633Z,6.93
2018-09-18T23:30:10.607Z,7.00
2018-09-18T23:32:38.516Z,7.37
2018-09-18T23:35:09.590Z,7.40
2018-09-18T23:37:37.534Z,7.73
2018-09-18T23:40:05.683Z,6.90
2018-09-18T23:42:33.621Z,7.03
2018-09-18T23:45:01.700Z,6.90
2018-09-18T23:47:29.686Z,6.77
2018-09-18T23:49:57.656Z,7.00
2018-09-18T23:52:25.889Z,7.90
2018-09-18T23:54:53.810Z,7.60
2018-09-18T23:57:21.770Z,7.03
2018-09-18T23:59:49.708Z,6.47
